createdAt,value
2022-10-16T00:01:44.358Z,99.90
2022-10-16T00:04:11.533Z,99.90
2022-10-16T00:06:39.519Z,99.90
2022-10-16T00:09:08.183Z,99.90
2022-10-16T00:11:39.118Z,99.90
2022-10-16T00:14:13.952Z,99.90
2022-10-16T00:16:42.523Z,99.90
2022-10-16T00:19:12.358Z,99.90
2022-10-16T00:21:39.884Z,99.90
2022-10-16T00:24:10.221Z,99.90
2022-10-16T00:26:39.469Z,99.90
2022-10-16T00:29:07.500Z,99.90
2022-10-16T00:31:35.798Z,99.90
2022-10-16T00:34:03.360Z,99.90
2022-10-16T00:36:30.567Z,99.90
2022-10-16T00:41:32.073Z,99.90
2022-10-16T00:44:03.340Z,99.90
2022-10-16T00:46:33.239Z,99.90
2022-10-16T00:49:15.374Z,99.90
2022-10-16T00:51:50.407Z,99.90
2022-10-16T00:54:31.181Z,99.90
2022-10-16T00:57:04.463Z,99.90
2022-10-16T00:59:35.915Z,99.90
2022-10-16T01:02:06.695Z,99.90
2022-10-16T01:04:40.005Z,99.90
2022-10-16T01:07:38.053Z,99.90
2022-10-16T01:10:15.491Z,99.90
2022-10-16T01:13:02.561Z,99.90
2022-10-16T01:15:53.256Z,99.90
2022-10-16T01:18:37.908Z,99.90
2022-10-16T01:21:17.325Z,99.90
2022-10-16T01:24:11.571Z,99.90
2022-10-16T01:27:12.646Z,99.90
2022-10-16T01:29:49.062Z,99.90
2022-10-16T01:32:39.082Z,99.90
2022-10-16T01:35:30.707Z,99.90
2022-10-16T01:38:24.583Z,99.90
2022-10-16T01:41:04.168Z,99.90
2022-10-16T01:44:11.552Z,99.90
2022-10-16T01:46:46.469Z,99.90
2022-10-16T01:49:14.948Z,99.90
2022-10-16T01:51:47.214Z,99.90
2022-10-16T01:54:18.934Z,99.90
2022-10-16T01:56:49.970Z,99.90
2022-10-16T01:59:24.702Z,99.90
2022-10-16T02:01:58.478Z,99.90
2022-10-16T02:04:32.818Z,99.90
2022-10-16T02:07:00.912Z,99.90
2022-10-16T02:09:28.247Z,99.90
2022-10-16T02:12:00.110Z,99.90
2022-10-16T02:14:28.166Z,99.90
2022-10-16T02:16:55.356Z,99.90
2022-10-16T02:19:23.770Z,99.90
2022-10-16T02:22:03.813Z,99.90
2022-10-16T02:25:00.872Z,99.90
2022-10-16T02:27:53.597Z,99.90
2022-10-16T02:30:40.510Z,99.90
2022-10-16T02:33:12.835Z,99.90
2022-10-16T02:35:42.443Z,99.90
2022-10-16T02:38:11.668Z,99.90
2022-10-16T02:40:40.057Z,99.90
2022-10-16T02:43:07.992Z,99.90
2022-10-16T02:45:35.238Z,99.90
2022-10-16T02:48:02.416Z,99.90
2022-10-16T02:50:29.623Z,99.90
2022-10-16T02:52:56.775Z,99.90
2022-10-16T02:55:23.964Z,99.90
2022-10-16T02:57:51.837Z,99.90
2022-10-16T03:00:19.916Z,99.90
2022-10-16T03:02:47.460Z,99.90
2022-10-16T03:05:15.739Z,99.90
2022-10-16T03:07:43.067Z,99.90
2022-10-16T03:10:10.434Z,99.90
2022-10-16T03:12:37.662Z,99.90
2022-10-16T03:15:06.041Z,99.90
2022-10-16T03:17:33.808Z,99.90
2022-10-16T03:20:01.118Z,99.90
2022-10-16T03:22:28.420Z,99.90
2022-10-16T03:24:55.857Z,99.90
2022-10-16T03:27:23.175Z,99.90
2022-10-16T03:29:50.556Z,99.90
2022-10-16T03:32:17.792Z,99.90
2022-10-16T03:34:45.028Z,99.90
2022-10-16T03:37:12.458Z,99.90
2022-10-16T03:39:39.625Z,99.90
2022-10-16T03:42:06.748Z,99.90
2022-10-16T03:44:33.950Z,99.90
2022-10-16T03:47:01.057Z,99.90
2022-10-16T03:49:28.281Z,99.90
2022-10-16T03:51:55.487Z,99.90
2022-10-16T03:54:22.697Z,99.90
2022-10-16T03:56:50.111Z,99.90
2022-10-16T03:59:17.434Z,99.90
2022-10-16T04:01:44.691Z,99.90
2022-10-16T04:04:11.846Z,99.90
2022-10-16T04:06:39.026Z,99.90
2022-10-16T04:09:06.255Z,99.90
2022-10-16T04:11:33.443Z,99.90
2022-10-16T04:14:00.920Z,99.90
2022-10-16T04:16:28.064Z,99.90
2022-10-16T04:18:55.231Z,99.90
2022-10-16T04:21:22.359Z,99.90
2022-10-16T04:23:49.627Z,99.90
2022-10-16T04:26:16.935Z,99.90
2022-10-16T04:28:44.957Z,99.90
2022-10-16T04:31:12.246Z,99.90
2022-10-16T04:33:39.494Z,99.90
2022-10-16T04:36:06.901Z,99.90
2022-10-16T04:38:34.290Z,99.90
2022-10-16T04:41:01.776Z,99.90
2022-10-16T04:45:56.206Z,99.90
2022-10-16T04:48:23.811Z,99.90
2022-10-16T04:50:54.419Z,99.90
2022-10-16T04:53:22.634Z,99.90
2022-10-16T04:55:50.966Z,99.90
2022-10-16T04:58:18.744Z,99.90
2022-10-16T05:00:46.549Z,99.90
2022-10-16T05:03:14.669Z,99.90
2022-10-16T05:05:46.839Z,99.90
2022-10-16T05:08:16.167Z,99.90
2022-10-16T05:10:45.085Z,99.90
2022-10-16T05:13:13.186Z,99.90
2022-10-16T05:15:40.633Z,99.90
2022-10-16T05:18:07.873Z,99.90
2022-10-16T05:20:35.061Z,99.90
2022-10-16T05:23:02.572Z,99.90
2022-10-16T05:25:29.879Z,99.90
2022-10-16T05:27:57.013Z,99.90
2022-10-16T05:30:24.526Z,99.90
2022-10-16T05:32:52.509Z,99.90
2022-10-16T05:35:21.146Z,99.90
2022-10-16T05:37:49.210Z,99.90
2022-10-16T05:40:16.980Z,99.90
2022-10-16T05:42:44.134Z,99.90
2022-10-16T05:45:12.497Z,99.90
2022-10-16T05:47:40.310Z,99.90
2022-10-16T05:50:08.340Z,99.90
2022-10-16T05:52:35.552Z,99.90
2022-10-16T05:55:02.846Z,99.90
2022-10-16T05:57:30.006Z,99.90
2022-10-16T05:59:57.717Z,99.90
2022-10-16T06:02:25.067Z,99.90
2022-10-16T06:04:55.155Z,99.90
2022-10-16T06:07:24.020Z,99.90
2022-10-16T06:09:53.772Z,99.90
2022-10-16T06:12:21.454Z,99.90
2022-10-16T06:14:48.642Z,99.90
2022-10-16T06:17:16.140Z,99.90
2022-10-16T06:19:43.643Z,99.90
2022-10-16T06:22:10.988Z,99.90
2022-10-16T06:24:38.175Z,99.90
2022-10-16T06:27:05.907Z,99.90
2022-10-16T06:29:33.139Z,99.90
2022-10-16T06:32:00.747Z,99.90
2022-10-16T06:34:27.924Z,99.90
2022-10-16T06:36:55.243Z,99.90
2022-10-16T06:39:22.486Z,99.90
2022-10-16T06:41:49.662Z,99.90
2022-10-16T06:44:16.899Z,99.90
2022-10-16T06:46:44.043Z,99.90
2022-10-16T06:49:11.220Z,99.90
2022-10-16T06:51:42.123Z,99.90
2022-10-16T06:54:10.619Z,99.90
2022-10-16T06:56:37.825Z,99.90
2022-10-16T06:59:05.551Z,99.90
2022-10-16T07:01:33.913Z,99.90
2022-10-16T07:04:03.028Z,99.90
2022-10-16T07:06:34.689Z,99.90
2022-10-16T07:09:08.293Z,99.90
2022-10-16T07:11:37.787Z,99.90
2022-10-16T07:14:06.182Z,99.90
2022-10-16T07:16:34.180Z,99.90
2022-10-16T07:19:03.682Z,99.90
2022-10-16T07:21:34.381Z,99.90
2022-10-16T07:24:02.623Z,99.90
2022-10-16T07:26:33.679Z,99.90
2022-10-16T07:29:01.545Z,99.90
2022-10-16T07:31:29.345Z,99.90
2022-10-16T07:33:59.641Z,99.90
2022-10-16T07:36:26.915Z,99.90
2022-10-16T07:38:57.065Z,99.90
2022-10-16T07:41:28.378Z,99.90
2022-10-16T07:43:57.609Z,99.90
2022-10-16T07:46:25.016Z,99.90
2022-10-16T07:48:52.820Z,99.90
2022-10-16T07:51:24.201Z,99.90
2022-10-16T07:53:52.123Z,99.90
2022-10-16T07:56:21.393Z,99.90
2022-10-16T07:58:49.972Z,99.90
2022-10-16T08:01:18.861Z,99.90
2022-10-16T08:03:52.229Z,99.90
2022-10-16T08:06:25.260Z,99.90
2022-10-16T08:08:57.583Z,99.90
2022-10-16T08:11:24.951Z,99.90
2022-10-16T08:13:52.129Z,99.90
2022-10-16T08:16:19.282Z,99.90
2022-10-16T08:18:47.016Z,99.90
2022-10-16T08:21:20.461Z,99.90
2022-10-16T08:23:54.427Z,99.90
2022-10-16T08:26:27.379Z,99.90
2022-10-16T08:28:55.849Z,99.90
2022-10-16T08:31:23.747Z,99.90
2022-10-16T08:33:51.008Z,99.90
2022-10-16T08:36:18.366Z,99.90
2022-10-16T08:38:49.183Z,99.90
2022-10-16T08:41:39.251Z,99.90
2022-10-16T08:44:36.874Z,99.90
2022-10-16T08:47:22.843Z,99.90
2022-10-16T08:50:09.273Z,99.90
2022-10-16T08:52:42.820Z,99.90
2022-10-16T08:55:42.537Z,99.90
2022-10-16T08:58:22.904Z,99.90
2022-10-16T09:01:00.988Z,99.90
2022-10-16T09:04:08.646Z,99.90
2022-10-16T09:06:44.315Z,99.90
2022-10-16T09:09:45.150Z,99.90
2022-10-16T09:12:30.088Z,99.90
2022-10-16T09:15:35.761Z,99.90
2022-10-16T09:18:21.116Z,99.90
2022-10-16T09:20:53.449Z,99.90
2022-10-16T09:23:31.258Z,99.90
2022-10-16T09:26:00.825Z,99.90
2022-10-16T09:28:28.156Z,99.90
2022-10-16T09:30:55.448Z,99.90
2022-10-16T09:33:34.785Z,99.90
2022-10-16T09:36:06.002Z,99.90
2022-10-16T09:38:37.099Z,99.90
2022-10-16T09:41:23.515Z,99.90
2022-10-16T09:44:01.326Z,99.90
2022-10-16T09:46:37.692Z,99.90
2022-10-16T09:49:19.391Z,99.90
2022-10-16T09:51:46.745Z,99.90
2022-10-16T09:54:21.257Z,99.90
2022-10-16T09:56:49.907Z,99.90
2022-10-16T09:59:20.303Z,99.90
2022-10-16T10:01:55.438Z,99.90
2022-10-16T10:04:25.570Z,99.90
2022-10-16T10:06:58.428Z,99.90
2022-10-16T10:09:43.811Z,99.90
2022-10-16T10:12:28.145Z,99.90
2022-10-16T10:15:08.681Z,99.90
2022-10-16T10:17:54.887Z,99.90
2022-10-16T10:20:31.451Z,99.90
2022-10-16T10:22:58.706Z,99.90
2022-10-16T10:25:32.108Z,99.90
2022-10-16T10:28:14.344Z,99.90
2022-10-16T10:31:11.904Z,99.90
2022-10-16T10:34:16.590Z,99.90
2022-10-16T10:50:51.565Z,99.90
2022-10-16T10:53:42.961Z,99.90
2022-10-16T10:56:20.415Z,99.90
2022-10-16T10:59:00.172Z,99.90
2022-10-16T11:01:30.016Z,99.90
2022-10-16T11:05:03.384Z,99.90
2022-10-16T11:07:41.446Z,99.90
2022-10-16T11:10:28.181Z,99.90
2022-10-16T11:13:16.155Z,99.90
2022-10-16T11:19:04.999Z,99.90
2022-10-16T11:21:47.130Z,99.90
2022-10-16T11:24:49.085Z,97.60
2022-10-16T11:27:23.495Z,97.80
2022-10-16T11:30:00.745Z,96.60
2022-10-16T11:35:24.340Z,94.10
2022-10-16T11:37:54.759Z,94.40
2022-10-16T11:40:39.645Z,93.70
2022-10-16T11:43:23.072Z,93.70
2022-10-16T11:46:00.099Z,94.00
2022-10-16T11:48:41.008Z,94.10
2022-10-16T11:51:36.391Z,94.20
2022-10-16T11:54:36.267Z,94.30
2022-10-16T11:57:22.081Z,93.90
2022-10-16T12:00:06.870Z,93.60
2022-10-16T12:03:05.697Z,94.00
2022-10-16T12:08:17.624Z,93.80
2022-10-16T12:10:48.331Z,93.10
2022-10-16T12:13:34.802Z,94.00
2022-10-16T12:16:12.419Z,92.80
2022-10-16T12:18:46.245Z,92.50
2022-10-16T12:21:21.529Z,91.70
2022-10-16T12:23:59.483Z,91.40
2022-10-16T12:26:34.286Z,90.80
2022-10-16T12:29:29.899Z,91.20
2022-10-16T12:31:58.767Z,91.30
2022-10-16T12:34:44.391Z,92.20
2022-10-16T12:37:24.111Z,90.40
2022-10-16T12:39:54.285Z,90.70
2022-10-16T12:42:29.844Z,90.20
2022-10-16T12:44:57.646Z,90.10
2022-10-16T12:47:39.325Z,89.30
2022-10-16T12:50:36.894Z,88.10
2022-10-16T12:53:23.698Z,89.10
2022-10-16T12:57:01.892Z,87.40
2022-10-16T13:00:04.401Z,89.30
2022-10-16T13:03:31.080Z,88.60
2022-10-16T13:06:21.099Z,90.00
2022-10-16T13:09:10.319Z,90.70
2022-10-16T13:12:24.752Z,90.30
2022-10-16T13:14:51.827Z,89.80
2022-10-16T13:17:30.464Z,90.70
2022-10-16T13:20:24.892Z,90.20
2022-10-16T13:23:22.273Z,91.00
2022-10-16T13:26:32.526Z,90.80
2022-10-16T13:29:04.521Z,90.90
2022-10-16T13:31:33.265Z,90.40
2022-10-16T13:34:02.345Z,88.50
2022-10-16T13:36:49.886Z,86.70
2022-10-16T13:39:31.458Z,90.20
2022-10-16T13:42:20.899Z,89.40
2022-10-16T13:44:55.506Z,88.90
2022-10-16T13:47:30.042Z,87.70
2022-10-16T13:50:07.772Z,88.50
2022-10-16T13:52:35.056Z,88.90
2022-10-16T13:55:02.629Z,88.50
2022-10-16T13:57:30.179Z,89.30
2022-10-16T13:59:57.497Z,88.00
2022-10-16T14:02:38.934Z,88.80
2022-10-16T14:05:11.311Z,87.60
2022-10-16T14:07:39.425Z,87.40
2022-10-16T14:10:22.945Z,86.20
2022-10-16T14:13:00.705Z,86.60
2022-10-16T14:15:28.581Z,87.50
2022-10-16T14:17:57.164Z,86.50
2022-10-16T14:20:30.933Z,86.80
2022-10-16T14:23:05.496Z,87.50
2022-10-16T14:25:33.757Z,86.50
2022-10-16T14:28:23.272Z,87.60
2022-10-16T14:31:00.808Z,87.00
2022-10-16T14:33:31.009Z,87.80
2022-10-16T14:36:11.840Z,89.50
2022-10-16T14:39:21.687Z,90.30
2022-10-16T14:41:52.082Z,90.80
2022-10-16T14:44:24.147Z,91.90
2022-10-16T14:46:51.467Z,92.50
2022-10-16T14:49:22.858Z,92.90
2022-10-16T14:51:50.133Z,93.30
2022-10-16T14:54:20.105Z,93.10
2022-10-16T14:56:58.337Z,93.30
2022-10-16T14:59:39.950Z,93.50
2022-10-16T15:02:19.444Z,93.90
2022-10-16T15:04:46.867Z,94.00
2022-10-16T15:07:14.079Z,94.10
2022-10-16T15:09:44.857Z,94.10
2022-10-16T15:12:13.919Z,95.10
2022-10-16T15:14:41.198Z,94.80
2022-10-16T15:17:12.027Z,94.80
2022-10-16T15:19:39.595Z,95.20
2022-10-16T15:22:06.825Z,95.60
2022-10-16T15:24:33.971Z,95.90
2022-10-16T15:27:01.267Z,96.00
2022-10-16T15:29:28.400Z,96.40
2022-10-16T15:31:55.644Z,96.90
2022-10-16T15:34:22.883Z,97.30
2022-10-16T15:36:50.036Z,97.50
2022-10-16T15:39:20.407Z,97.60
2022-10-16T15:41:49.317Z,97.80
2022-10-16T15:44:16.499Z,97.90
2022-10-16T15:46:43.998Z,98.30
2022-10-16T15:49:12.601Z,98.30
2022-10-16T15:51:42.636Z,98.40
2022-10-16T15:54:10.613Z,98.80
2022-10-16T15:56:37.948Z,99.00
2022-10-16T15:59:06.544Z,99.20
2022-10-16T16:01:35.420Z,99.40
2022-10-16T16:04:11.053Z,99.60
2022-10-16T16:06:47.763Z,99.90
2022-10-16T16:09:16.036Z,99.90
2022-10-16T16:11:44.199Z,99.90
2022-10-16T16:14:15.042Z,99.90
2022-10-16T16:16:43.750Z,99.90
2022-10-16T16:19:11.899Z,99.90
2022-10-16T16:21:40.292Z,99.90
2022-10-16T16:24:07.515Z,99.90
2022-10-16T16:26:35.921Z,99.90
2022-10-16T16:29:04.969Z,99.90
2022-10-16T16:31:34.037Z,99.90
2022-10-16T16:34:01.346Z,99.90
2022-10-16T16:36:28.470Z,99.90
2022-10-16T16:38:55.687Z,99.90
2022-10-16T16:41:28.037Z,99.90
2022-10-16T16:43:56.996Z,99.90
2022-10-16T16:46:24.310Z,99.90
2022-10-16T16:48:51.684Z,99.90
2022-10-16T16:51:19.903Z,99.90
2022-10-16T16:53:50.773Z,99.90
2022-10-16T16:56:19.887Z,99.90
2022-10-16T16:58:49.245Z,99.90
2022-10-16T17:01:21.523Z,99.90
2022-10-16T17:03:53.162Z,99.90
2022-10-16T17:06:28.341Z,99.90
2022-10-16T17:08:55.781Z,99.90
2022-10-16T17:11:27.251Z,99.90
2022-10-16T17:13:57.663Z,99.90
2022-10-16T17:16:35.907Z,99.90
2022-10-16T17:19:07.713Z,99.90
2022-10-16T17:21:36.551Z,99.90
2022-10-16T17:24:04.605Z,99.90
2022-10-16T17:26:32.160Z,99.90
2022-10-16T17:29:02.115Z,99.90
2022-10-16T17:31:37.355Z,99.90
2022-10-16T17:34:10.832Z,99.90
2022-10-16T17:36:39.679Z,99.90
2022-10-16T17:39:08.829Z,99.90
2022-10-16T17:41:36.776Z,99.90
2022-10-16T17:44:06.420Z,99.90
2022-10-16T17:46:38.356Z,99.90
2022-10-16T17:49:10.246Z,99.90
2022-10-16T17:51:38.292Z,99.90
2022-10-16T17:54:06.995Z,99.90
2022-10-16T17:56:34.736Z,99.90
2022-10-16T17:59:02.419Z,99.90
2022-10-16T18:01:38.784Z,99.90
2022-10-16T18:04:12.470Z,99.90
2022-10-16T18:06:43.177Z,99.90
2022-10-16T18:09:15.094Z,99.90
2022-10-16T18:11:42.667Z,99.90
2022-10-16T18:14:15.450Z,99.90
2022-10-16T18:16:43.671Z,99.90
2022-10-16T18:19:12.258Z,99.90
2022-10-16T18:21:39.486Z,99.90
2022-10-16T18:24:11.151Z,99.90
2022-10-16T18:26:39.166Z,99.90
2022-10-16T18:29:07.218Z,99.90
2022-10-16T18:31:37.747Z,99.90
2022-10-16T18:34:07.874Z,99.90
2022-10-16T18:36:36.627Z,99.90
2022-10-16T18:39:07.565Z,99.90
2022-10-16T18:41:35.657Z,99.90
2022-10-16T18:44:12.333Z,99.90
2022-10-16T18:46:39.989Z,99.90
2022-10-16T18:49:08.519Z,99.90
2022-10-16T18:51:40.361Z,99.90
2022-10-16T18:54:11.177Z,99.90
2022-10-16T18:56:39.346Z,99.90
2022-10-16T18:59:12.033Z,99.90
2022-10-16T19:01:40.254Z,99.90
2022-10-16T19:04:14.981Z,99.90
2022-10-16T19:06:48.172Z,99.90
2022-10-16T19:09:18.218Z,99.90
2022-10-16T19:11:46.410Z,99.90
2022-10-16T19:14:16.573Z,99.90
2022-10-16T19:16:44.432Z,99.90
2022-10-16T19:19:17.078Z,99.90
2022-10-16T19:21:44.630Z,99.90
2022-10-16T19:24:15.204Z,99.90
2022-10-16T19:26:43.484Z,99.90
2022-10-16T19:29:11.801Z,99.90
2022-10-16T19:31:39.704Z,99.90
2022-10-16T19:34:07.842Z,99.90
2022-10-16T19:36:37.591Z,99.90
2022-10-16T19:39:11.542Z,99.90
2022-10-16T19:44:09.568Z,99.90
2022-10-16T19:46:37.610Z,99.90
2022-10-16T19:49:09.469Z,99.90
2022-10-16T19:51:38.494Z,99.90
2022-10-16T19:54:11.796Z,99.90
2022-10-16T19:56:43.947Z,99.90
2022-10-16T19:59:13.644Z,99.90
2022-10-16T20:01:42.611Z,99.90
2022-10-16T20:04:11.546Z,99.90
2022-10-16T20:06:39.089Z,99.90
2022-10-16T20:09:06.660Z,99.90
2022-10-16T20:11:36.085Z,99.90
2022-10-16T20:14:05.360Z,99.90
2022-10-16T20:16:32.571Z,99.90
2022-10-16T20:19:00.293Z,99.90
2022-10-16T20:21:31.770Z,99.90
2022-10-16T20:24:02.722Z,99.90
2022-10-16T20:26:30.076Z,99.90
2022-10-16T20:28:57.318Z,99.90
2022-10-16T20:31:28.602Z,99.90
2022-10-16T20:34:01.407Z,99.90
2022-10-16T20:36:28.805Z,99.90
2022-10-16T20:38:56.531Z,99.90
2022-10-16T20:41:24.432Z,99.90
2022-10-16T20:43:53.845Z,99.90
2022-10-16T20:46:25.133Z,99.90
2022-10-16T20:48:53.820Z,99.90
2022-10-16T20:51:30.773Z,99.90
2022-10-16T20:54:01.778Z,99.90
2022-10-16T20:56:32.415Z,99.90
2022-10-16T20:58:59.617Z,99.90
2022-10-16T21:01:29.606Z,99.90
2022-10-16T21:04:01.091Z,99.90
2022-10-16T21:06:29.517Z,99.90
2022-10-16T21:08:58.224Z,99.90
2022-10-16T21:11:27.508Z,99.90
2022-10-16T21:13:57.870Z,99.90
2022-10-16T21:16:26.260Z,99.90
2022-10-16T21:18:54.226Z,99.90
2022-10-16T21:21:31.766Z,99.90
2022-10-16T21:24:00.286Z,99.90
2022-10-16T21:26:29.484Z,99.90
2022-10-16T21:29:00.331Z,99.90
2022-10-16T21:31:28.764Z,99.90
2022-10-16T21:33:56.649Z,99.90
2022-10-16T21:36:27.492Z,99.90
2022-10-16T21:38:56.037Z,99.90
2022-10-16T21:41:27.133Z,99.90
2022-10-16T21:43:57.062Z,99.90
2022-10-16T21:46:31.154Z,99.90
2022-10-16T21:49:01.494Z,99.90
2022-10-16T21:51:36.372Z,99.90
2022-10-16T21:54:08.360Z,99.90
2022-10-16T21:56:35.868Z,99.90
2022-10-16T21:59:03.436Z,99.90
2022-10-16T22:01:30.727Z,99.90
2022-10-16T22:03:58.940Z,99.90
2022-10-16T22:06:28.643Z,99.90
2022-10-16T22:08:59.991Z,99.90
2022-10-16T22:11:31.561Z,99.90
2022-10-16T22:13:58.847Z,99.90
2022-10-16T22:16:26.996Z,99.90
2022-10-16T22:18:58.289Z,99.90
2022-10-16T22:21:27.439Z,99.90
2022-10-16T22:23:55.159Z,99.90
2022-10-16T22:26:22.818Z,99.90
2022-10-16T22:28:50.746Z,99.90
2022-10-16T22:31:18.449Z,99.90
2022-10-16T22:33:45.702Z,99.90
2022-10-16T22:36:15.486Z,99.90
2022-10-16T22:38:42.841Z,99.90
2022-10-16T22:41:13.939Z,99.90
2022-10-16T22:43:47.685Z,99.90
2022-10-16T22:46:25.943Z,99.90
2022-10-16T22:48:55.803Z,99.90
2022-10-16T22:51:25.484Z,99.90
2022-10-16T22:53:52.706Z,99.90
2022-10-16T22:56:22.094Z,99.90
2022-10-16T22:58:49.771Z,99.90
2022-10-16T23:01:23.510Z,99.90
2022-10-16T23:03:50.991Z,99.90
2022-10-16T23:06:18.223Z,99.90
2022-10-16T23:08:45.914Z,99.90
2022-10-16T23:11:13.645Z,99.90
2022-10-16T23:13:42.503Z,99.90
2022-10-16T23:16:09.941Z,99.90
2022-10-16T23:18:37.162Z,99.90
2022-10-16T23:21:10.890Z,99.90
2022-10-16T23:23:40.125Z,99.90
2022-10-16T23:26:17.821Z,99.90
2022-10-16T23:28:46.013Z,99.90
2022-10-16T23:31:15.376Z,99.90
2022-10-16T23:33:42.983Z,99.90
2022-10-16T23:36:18.901Z,99.90
2022-10-16T23:38:47.809Z,99.90
2022-10-16T23:41:16.548Z,99.90
2022-10-16T23:43:44.246Z,99.90
2022-10-16T23:46:13.332Z,99.90
2022-10-16T23:48:41.516Z,99.90
2022-10-16T23:51:10.218Z,99.90
2022-10-16T23:53:37.640Z,99.90
2022-10-16T23:56:05.358Z,99.90
2022-10-16T23:58:32.723Z,99.90
